Time;durP1;ratioP1;P1;durP2;ratioP2;P2;SDS_P1;SDS_P2;PMS_P1;PMS_P2;Temp;Humidity;BMP_temperature;BMP_pressure;BME280_temperature;BME280_humidity;BME280_pressure;Samples;Min_cycle;Max_cycle;Signal;HPM_P1;HPM_P2
2023/08/13 00:00:01;;;;;;;10.15;3.08;;;;;;;16.59;88.31;101627.94;5051772;28;20650;-76
2023/08/13 00:02:29;;;;;;;11.60;3.15;;;;;;;16.53;88.03;101624.00;5050820;28;20083;-77
2023/08/13 00:04:57;;;;;;;9.38;3.20;;;;;;;16.44;88.24;101623.94;5050542;28;20439;-77
2023/08/13 00:07:22;;;;;;;11.88;3.30;;;;;;;16.49;88.94;101627.06;5046472;28;20025;-76
2023/08/13 00:09:48;;;;;;;11.10;3.50;;;;;;;16.42;88.98;101615.28;5027762;28;20116;-77
2023/08/13 00:12:13;;;;;;;11.45;3.08;;;;;;;16.40;89.72;101622.50;5030330;28;20029;-76
2023/08/13 00:14:39;;;;;;;11.35;3.58;;;;;;;16.36;89.86;101608.66;5031468;28;20591;-77
2023/08/13 00:17:04;;;;;;;13.02;3.20;;;;;;;16.35;91.00;101614.09;5031203;28;20128;-77
2023/08/13 00:19:30;;;;;;;13.15;3.53;;;;;;;16.34;90.47;101612.41;5030419;28;20427;-77
2023/08/13 00:21:55;;;;;;;10.10;3.10;;;;;;;16.33;90.84;101616.03;5031020;28;20079;-76
2023/08/13 00:24:21;;;;;;;10.02;3.13;;;;;;;16.25;90.79;101614.88;5023869;28;20394;-77
2023/08/13 00:26:46;;;;;;;10.65;3.05;;;;;;;16.21;91.17;101610.81;5030290;28;20493;-77
2023/08/13 00:29:12;;;;;;;10.75;3.17;;;;;;;16.23;91.16;101616.84;5044361;28;20031;-77
2023/08/13 00:31:37;;;;;;;7.20;2.80;;;;;;;16.19;92.39;101619.88;5051322;28;20363;-77
2023/08/13 00:34:03;;;;;;;10.32;3.55;;;;;;;16.15;91.99;101614.00;5050378;28;20033;-77
2023/08/13 00:36:30;;;;;;;10.77;3.08;;;;;;;16.13;93.49;101610.63;5050632;28;20021;-77
2023/08/13 00:38:56;;;;;;;11.88;3.50;;;;;;;16.10;92.49;101613.56;5050728;28;20036;-77
2023/08/13 00:41:21;;;;;;;11.43;3.40;;;;;;;16.11;92.99;101611.75;5048639;28;20033;-77
2023/08/13 00:43:47;;;;;;;10.77;3.70;;;;;;;16.07;93.02;101613.81;5025907;28;20109;-77
2023/08/13 00:46:16;;;;;;;14.32;4.18;;;;;;;16.01;93.04;101611.69;5030391;28;20042;-77
2023/08/13 00:48:42;;;;;;;10.30;3.35;;;;;;;16.03;93.04;101609.75;5030115;28;20029;-76
2023/08/13 00:51:11;;;;;;;11.15;3.88;;;;;;;16.06;94.01;101603.34;5030407;28;20044;-77
2023/08/13 00:53:45;;;;;;;10.32;3.15;;;;;;;16.02;93.90;101605.41;5034570;28;20029;-77
2023/08/13 00:56:10;;;;;;;13.55;3.40;;;;;;;15.97;93.60;101604.94;5049263;28;20036;-77
2023/08/13 00:58:36;;;;;;;16.88;4.00;;;;;;;15.94;93.36;101602.53;5034852;28;20026;-77
2023/08/13 01:01:01;;;;;;;9.98;3.20;;;;;;;15.97;94.98;101608.41;5027020;28;20025;-77
2023/08/13 01:03:29;;;;;;;8.70;2.85;;;;;;;15.94;93.79;101607.84;5010860;28;20358;-77
2023/08/13 01:06:13;;;;;;;9.93;2.92;;;;;;;15.91;94.73;101610.75;5011544;28;20100;-77
2023/08/13 01:09:05;;;;;;;10.13;3.05;;;;;;;15.91;94.53;101610.75;5026125;28;20033;-77
2023/08/13 01:11:41;;;;;;;8.68;3.10;;;;;;;15.81;95.13;101604.53;5010058;28;20026;-77
2023/08/13 01:14:25;;;;;;;11.73;3.58;;;;;;;15.85;95.62;101600.66;5024574;28;20037;-77
2023/08/13 01:16:55;;;;;;;11.35;3.28;;;;;;;15.80;95.48;101609.00;5009576;28;20026;-77
2023/08/13 01:19:21;;;;;;;11.75;3.47;;;;;;;15.78;95.72;101610.97;5010204;28;20101;-77
2023/08/13 01:21:47;;;;;;;13.88;3.63;;;;;;;15.70;95.82;101618.72;5010319;28;20114;-77
2023/08/13 01:24:15;;;;;;;10.50;3.28;;;;;;;15.70;95.71;101617.88;5009660;28;21136;-77
2023/08/13 01:27:10;;;;;;;11.88;3.42;;;;;;;15.65;96.69;101620.91;5010355;28;20397;-76
2023/08/13 01:30:04;;;;;;;15.85;3.42;;;;;;;15.68;96.08;101620.66;5042433;28;20036;-76
2023/08/13 01:32:40;;;;;;;10.05;3.10;;;;;;;15.63;97.13;101618.38;5013469;28;20053;-76
2023/08/13 01:35:09;;;;;;;13.32;3.70;;;;;;;15.59;96.98;101616.94;5028286;28;20018;-76
2023/08/13 01:37:35;;;;;;;11.18;3.25;;;;;;;15.59;96.89;101622.25;5028084;28;20029;-75
2023/08/13 01:40:03;;;;;;;10.85;2.88;;;;;;;15.57;97.00;101626.78;5027686;28;20112;-75
2023/08/13 01:42:32;;;;;;;8.95;2.75;;;;;;;15.53;97.91;101622.72;5028584;28;20034;-78
2023/08/13 01:44:58;;;;;;;12.25;3.10;;;;;;;15.55;97.30;101626.09;5029079;28;20040;-78
2023/08/13 01:47:23;;;;;;;12.85;3.10;;;;;;;15.53;97.21;101625.38;5029591;28;20022;-78
2023/08/13 01:49:52;;;;;;;13.32;3.42;;;;;;;15.54;97.26;101623.56;5024242;28;20044;-78
2023/08/13 01:52:17;;;;;;;9.82;2.97;;;;;;;15.53;97.51;101621.88;5025919;28;20025;-78
2023/08/13 01:54:43;;;;;;;8.38;2.78;;;;;;;15.53;97.71;101622.72;5039840;28;20028;-78
2023/08/13 01:57:09;;;;;;;11.98;2.97;;;;;;;15.52;97.87;101618.38;5049174;28;20025;-78
2023/08/13 01:59:35;;;;;;;11.27;3.22;;;;;;;15.45;97.93;101622.50;5050477;28;20104;-78
2023/08/13 02:02:00;;;;;;;18.98;3.78;;;;;;;15.47;98.25;101622.38;5049386;28;20119;-78
2023/08/13 02:04:25;;;;;;;11.13;2.92;;;;;;;15.45;98.06;101614.56;5048279;28;20056;-78
2023/08/13 02:06:53;;;;;;;13.55;3.53;;;;;;;15.46;98.43;101616.25;5030456;28;20022;-78
2023/08/13 02:09:18;;;;;;;9.05;2.78;;;;;;;15.44;98.45;101618.19;5010601;28;20084;-78
2023/08/13 02:11:44;;;;;;;9.65;2.88;;;;;;;15.43;98.78;101616.50;5010234;28;20045;-78
2023/08/13 02:14:12;;;;;;;12.02;2.70;;;;;;;15.41;99.05;101620.25;5010154;28;20033;-78
2023/08/13 02:16:38;;;;;;;10.80;3.08;;;;;;;15.40;99.22;101608.78;5011010;28;20026;-78
2023/08/13 02:19:03;;;;;;;10.13;2.90;;;;;;;15.42;99.16;101606.00;5010010;28;20037;-78
2023/08/13 02:21:29;;;;;;;10.18;2.95;;;;;;;15.39;99.32;101604.47;5025427;28;20084;-78
2023/08/13 02:23:55;;;;;;;9.52;2.95;;;;;;;15.40;99.48;101605.28;5015832;28;20044;-78
2023/08/13 02:26:23;;;;;;;12.45;3.05;;;;;;;15.39;99.96;101608.91;5027582;28;20017;-78
2023/08/13 02:28:48;;;;;;;9.80;2.72;;;;;;;15.37;100.00;101606.41;5039518;28;20046;-78
2023/08/13 02:31:14;;;;;;;12.55;3.55;;;;;;;15.38;100.00;101607.25;5047624;28;20021;-76
2023/08/13 02:33:39;;;;;;;12.05;3.15;;;;;;;15.40;100.00;101600.00;5048386;28;20523;-77
2023/08/13 02:36:05;;;;;;;9.40;2.85;;;;;;;15.36;100.00;101600.25;5034090;28;20025;-77
2023/08/13 02:38:30;;;;;;;9.27;2.70;;;;;;;15.38;100.00;101591.31;5009141;28;20026;-76
2023/08/13 02:40:56;;;;;;;10.52;2.90;;;;;;;15.39;100.00;101603.63;5018369;28;20658;-76
2023/08/13 02:43:21;;;;;;;14.48;3.63;;;;;;;15.36;100.00;101605.56;5027404;28;20030;-76
2023/08/13 02:45:47;;;;;;;9.73;2.83;;;;;;;15.29;100.00;101596.41;5028552;28;20049;-77
2023/08/13 02:48:12;;;;;;;11.35;3.00;;;;;;;15.30;100.00;101589.31;5028091;28;20034;-77
2023/08/13 02:50:38;;;;;;;11.52;2.92;;;;;;;15.34;100.00;101590.72;5060663;28;20484;-77
2023/08/13 02:53:05;;;;;;;13.10;3.08;;;;;;;15.29;100.00;101599.06;5031012;28;20036;-77
2023/08/13 02:55:31;;;;;;;11.20;3.33;;;;;;;15.22;100.00;101595.25;5050062;28;20040;-77
2023/08/13 02:57:56;;;;;;;9.70;2.63;;;;;;;15.24;100.00;101595.97;5028824;28;20025;-76
2023/08/13 03:00:22;;;;;;;12.13;3.00;;;;;;;15.25;100.00;101602.09;5032248;28;20052;-76
2023/08/13 03:02:47;;;;;;;9.75;3.25;;;;;;;15.18;100.00;101591.13;5030585;28;20033;-76
2023/08/13 03:05:13;;;;;;;8.63;3.10;;;;;;;15.23;100.00;101593.44;5032079;28;20051;-76
2023/08/13 03:07:38;;;;;;;10.63;2.85;;;;;;;15.14;100.00;101589.69;5031194;28;20021;-77
2023/08/13 03:10:04;;;;;;;11.43;3.22;;;;;;;15.18;100.00;101587.63;5031915;28;20108;-77
2023/08/13 03:12:33;;;;;;;12.23;3.17;;;;;;;15.13;100.00;101590.66;5033037;28;20079;-76
2023/08/13 03:14:58;;;;;;;9.95;2.80;;;;;;;15.03;100.00;101585.28;5025464;28;20041;-77
2023/08/13 03:17:24;;;;;;;9.60;2.63;;;;;;;15.10;100.00;101587.41;5030674;28;20386;-76
2023/08/13 03:19:49;;;;;;;10.88;2.90;;;;;;;15.06;100.00;101589.47;5031943;28;20030;-77
2023/08/13 03:22:14;;;;;;;11.68;3.20;;;;;;;14.99;100.00;101589.16;5032102;28;20029;-76
2023/08/13 03:24:40;;;;;;;8.45;2.50;;;;;;;15.01;100.00;101589.03;5032156;28;20032;-76
2023/08/13 03:27:05;;;;;;;10.05;2.70;;;;;;;14.99;100.00;101590.94;5031860;28;20032;-76
2023/08/13 03:29:30;;;;;;;12.43;3.10;;;;;;;14.99;100.00;101593.59;5048503;28;20090;-77
2023/08/13 03:31:56;;;;;;;11.48;3.10;;;;;;;15.02;100.00;101591.53;5034484;28;20108;-77
2023/08/13 03:34:21;;;;;;;12.10;3.33;;;;;;;14.94;100.00;101593.97;5032785;28;20029;-77
2023/08/13 03:36:47;;;;;;;9.23;3.28;;;;;;;14.97;100.00;101593.72;5032385;28;20109;-77
2023/08/13 03:39:12;;;;;;;10.55;2.90;;;;;;;14.93;100.00;101588.78;5032757;28;20029;-77
2023/08/13 03:41:44;;;;;;;11.60;3.17;;;;;;;14.90;100.00;101587.25;5032944;28;20079;-77
2023/08/13 03:44:09;;;;;;;14.18;3.08;;;;;;;14.90;100.00;101583.75;5032187;28;20124;-77
2023/08/13 03:46:34;;;;;;;14.95;3.70;;;;;;;14.82;100.00;101588.81;5032301;28;20137;-77
2023/08/13 03:49:00;;;;;;;10.45;3.20;;;;;;;14.85;100.00;101593.88;5024806;28;20037;-76
2023/08/13 03:51:28;;;;;;;11.00;2.67;;;;;;;14.88;100.00;101594.47;5030624;28;20092;-78
2023/08/13 03:53:57;;;;;;;9.50;3.05;;;;;;;14.83;100.00;101593.16;5036473;28;20075;-77
2023/08/13 03:56:24;;;;;;;8.55;3.28;;;;;;;14.85;100.00;101597.38;5050093;28;20032;-77
2023/08/13 03:58:50;;;;;;;13.25;3.30;;;;;;;14.80;100.00;101594.22;5049725;28;20025;-77
2023/08/13 04:01:15;;;;;;;11.43;3.42;;;;;;;14.77;100.00;101597.09;5048804;28;20029;-77
2023/08/13 04:03:43;;;;;;;10.63;2.90;;;;;;;14.78;100.00;101598.78;5048819;28;20064;-77
2023/08/13 04:06:09;;;;;;;8.18;2.92;;;;;;;14.77;100.00;101602.41;5025729;28;20025;-77
2023/08/13 04:08:35;;;;;;;11.55;3.35;;;;;;;14.77;100.00;101596.28;5029366;28;20367;-77
2023/08/13 04:11:03;;;;;;;9.95;2.97;;;;;;;14.70;100.00;101604.72;5029704;28;20024;-76
2023/08/13 04:13:29;;;;;;;12.30;2.95;;;;;;;14.68;100.00;101597.84;5028025;28;20068;-77
2023/08/13 04:15:54;;;;;;;11.65;3.60;;;;;;;14.70;100.00;101598.56;5028458;28;20392;-77
2023/08/13 04:18:22;;;;;;;9.70;3.63;;;;;;;14.73;100.00;101606.28;5029497;28;20572;-76
2023/08/13 04:20:48;;;;;;;12.25;3.63;;;;;;;14.76;100.00;101610.47;5029995;28;20025;-76
2023/08/13 04:23:13;;;;;;;9.35;3.25;;;;;;;14.70;100.00;101607.34;5023349;28;20388;-76
2023/08/13 04:25:39;;;;;;;12.25;3.67;;;;;;;14.67;100.00;101606.75;5028239;28;20063;-76
2023/08/13 04:28:06;;;;;;;10.13;3.40;;;;;;;14.65;100.00;101606.88;5034428;28;20033;-76
2023/08/13 04:30:31;;;;;;;13.90;3.70;;;;;;;14.65;100.00;101606.03;5049696;28;20017;-77
2023/08/13 04:32:57;;;;;;;9.93;3.28;;;;;;;14.67;100.00;101602.31;5049250;28;20677;-77
2023/08/13 04:35:23;;;;;;;10.15;3.60;;;;;;;14.70;100.00;101606.50;5049579;28;20028;-77
2023/08/13 04:37:51;;;;;;;10.00;3.22;;;;;;;14.73;100.00;101601.81;5045159;28;20441;-79
2023/08/13 04:40:17;;;;;;;12.07;3.63;;;;;;;14.70;100.00;101601.22;5022176;28;20034;-77
2023/08/13 04:42:43;;;;;;;12.40;3.58;;;;;;;14.70;100.00;101601.22;5010816;28;20053;-77
2023/08/13 04:45:09;;;;;;;12.27;3.92;;;;;;;14.66;100.00;101611.22;4969084;28;1207224;-77
2023/08/13 04:47:35;;;;;;;10.43;3.47;;;;;;;14.71;100.00;101602.91;5011405;28;20048;-77
2023/08/13 04:50:04;;;;;;;9.18;3.28;;;;;;;14.76;100.00;101616.63;5010687;28;20026;-77
2023/08/13 04:52:29;;;;;;;12.82;3.47;;;;;;;14.85;100.00;101615.91;5043239;28;20470;-77
2023/08/13 04:54:55;;;;;;;10.20;3.20;;;;;;;14.94;100.00;101609.88;5027406;28;20112;-77
2023/08/13 04:57:21;;;;;;;13.00;3.47;;;;;;;14.98;100.00;101610.47;5029763;28;20057;-77
2023/08/13 04:59:51;;;;;;;9.10;3.65;;;;;;;14.95;100.00;101606.25;5031460;28;20381;-77
2023/08/13 05:02:17;;;;;;;11.00;3.70;;;;;;;15.01;100.00;101607.56;5030694;28;20035;-77
2023/08/13 05:04:45;;;;;;;9.40;3.65;;;;;;;14.95;100.00;101606.25;5029986;28;20022;-77
2023/08/13 05:07:11;;;;;;;14.52;4.03;;;;;;;14.94;100.00;101599.28;5031218;28;20097;-77
2023/08/13 05:09:36;;;;;;;12.18;3.95;;;;;;;15.01;100.00;101596.97;5030833;28;20029;-77
2023/08/13 05:12:02;;;;;;;12.80;3.60;;;;;;;15.01;100.00;101597.81;5022411;28;20037;-77
2023/08/13 05:14:35;;;;;;;10.13;3.70;;;;;;;15.05;100.00;101601.91;5027174;28;20044;-76
2023/08/13 05:17:00;;;;;;;;;;;;;;;15.16;100.00;101600.16;5031418;28;20029;-76
2023/08/13 05:19:28;;;;;;;11.98;3.38;;;;;;;15.14;100.00;101600.31;5030065;28;19931;-76
2023/08/13 05:21:53;;;;;;;12.85;4.07;;;;;;;15.06;100.00;101600.09;5028122;28;20075;-76
2023/08/13 05:24:21;;;;;;;10.80;3.67;;;;;;;15.13;100.00;101603.91;5029994;28;20433;-76
2023/08/13 05:26:46;;;;;;;12.55;4.22;;;;;;;15.10;100.00;101611.28;5028513;28;20453;-77
2023/08/13 05:29:12;;;;;;;13.60;4.18;;;;;;;15.16;100.00;101608.13;5027242;28;20049;-77
2023/08/13 05:31:40;;;;;;;12.60;3.63;;;;;;;15.16;100.00;101608.97;5030394;28;20040;-77
2023/08/13 05:34:06;;;;;;;11.80;3.80;;;;;;;15.17;100.00;101604.50;5028664;28;20025;-77
2023/08/13 05:36:31;;;;;;;13.43;4.30;;;;;;;15.20;100.00;101609.56;5029436;28;20029;-77
2023/08/13 05:38:57;;;;;;;14.85;3.63;;;;;;;15.23;100.00;101612.00;5029914;28;20394;-77
2023/08/13 05:41:22;;;;;;;9.85;3.95;;;;;;;15.23;100.00;101615.47;5028609;28;20026;-77
2023/08/13 05:43:47;;;;;;;11.27;3.90;;;;;;;15.24;100.00;101616.31;5029258;28;20075;-77
2023/08/13 05:46:15;;;;;;;8.20;3.50;;;;;;;15.25;100.00;101612.72;5024729;28;20099;-77
2023/08/13 05:48:43;;;;;;;11.48;3.88;;;;;;;15.31;100.00;101621.00;5028491;28;20024;-77
2023/08/13 05:51:09;;;;;;;14.85;4.38;;;;;;;15.36;100.00;101613.50;5029151;28;20026;-77
2023/08/13 05:53:38;;;;;;;10.48;3.75;;;;;;;15.44;100.00;101618.19;5030868;28;20025;-77
2023/08/13 05:56:04;;;;;;;14.57;3.75;;;;;;;15.47;100.00;101617.94;5048304;28;20029;-77
2023/08/13 05:58:29;;;;;;;13.15;4.07;;;;;;;15.53;100.00;101622.72;5047961;28;20021;-78
2023/08/13 06:00:57;;;;;;;12.63;4.10;;;;;;;15.62;100.00;101616.72;5049079;28;20040;-76
2023/08/13 06:03:23;;;;;;;12.05;4.20;;;;;;;15.69;100.00;101622.34;5029993;28;20076;-77
2023/08/13 06:05:49;;;;;;;14.10;4.13;;;;;;;15.76;100.00;101628.81;5029909;28;20437;-77
2023/08/13 06:08:15;;;;;;;13.93;3.80;;;;;;;15.84;100.00;101625.53;5030374;28;20057;-77
2023/08/13 06:10:40;;;;;;;12.05;3.90;;;;;;;15.94;100.00;101621.97;5030147;28;20108;-77
2023/08/13 06:13:06;;;;;;;13.80;3.90;;;;;;;16.01;100.00;101622.31;5030323;28;20029;-76
2023/08/13 06:15:33;;;;;;;13.10;3.42;;;;;;;16.09;100.00;101625.16;5030125;28;20030;-77
2023/08/13 06:18:02;;;;;;;15.10;3.90;;;;;;;16.17;100.00;101621.84;5029387;28;20053;-77
2023/08/13 06:20:28;;;;;;;13.10;3.55;;;;;;;16.25;100.00;101617.56;5018795;28;20044;-77
2023/08/13 06:22:53;;;;;;;11.10;3.50;;;;;;;16.33;100.00;101613.38;5030142;28;20033;-77
2023/08/13 06:25:19;;;;;;;11.57;3.42;;;;;;;16.38;100.00;101619.13;5029346;28;20017;-77
2023/08/13 06:27:47;;;;;;;10.63;3.40;;;;;;;16.44;100.00;101623.94;5030891;28;20025;-77
2023/08/13 06:30:12;;;;;;;10.90;3.20;;;;;;;16.48;100.00;101618.25;5049015;28;20417;-76
2023/08/13 06:32:38;;;;;;;11.77;3.88;;;;;;;16.55;100.00;101621.19;5048722;28;20036;-77
2023/08/13 06:35:04;;;;;;;11.60;3.42;;;;;;;16.57;100.00;101613.94;5046231;28;20029;-75
2023/08/13 06:37:30;;;;;;;12.88;4.00;;;;;;;16.69;100.00;101620.88;5010980;28;20061;-76
2023/08/13 06:39:55;;;;;;;11.98;3.45;;;;;;;16.78;100.00;101622.72;5008509;28;20065;-77
2023/08/13 06:42:21;;;;;;;10.32;3.17;;;;;;;16.93;100.00;101631.16;5009025;28;20029;-77
2023/08/13 06:44:47;;;;;;;11.60;3.58;;;;;;;16.98;100.00;101620.13;5008060;28;20018;-77
2023/08/13 06:47:12;;;;;;;10.30;3.40;;;;;;;17.06;99.92;101620.28;5006848;28;20466;-77
2023/08/13 06:49:38;;;;;;;13.57;3.45;;;;;;;17.11;99.55;101618.88;5009341;28;20034;-77
2023/08/13 06:52:04;;;;;;;9.90;3.55;;;;;;;17.14;99.40;101617.78;5009777;28;20026;-77
2023/08/13 06:54:29;;;;;;;10.43;3.55;;;;;;;17.22;98.92;101620.63;5037530;28;20036;-76
2023/08/13 06:56:55;;;;;;;9.35;3.28;;;;;;;17.30;98.67;101618.09;5027597;28;20025;-77
2023/08/13 06:59:21;;;;;;;10.55;3.00;;;;;;;17.39;98.17;101622.59;5027329;28;20454;-76
2023/08/13 07:01:46;;;;;;;10.88;2.92;;;;;;;17.53;97.58;101616.84;5027989;28;20034;-76
2023/08/13 07:04:12;;;;;;;9.73;3.30;;;;;;;17.61;96.11;101615.28;5027326;28;20047;-76
2023/08/13 07:06:37;;;;;;;9.57;3.08;;;;;;;17.68;96.48;101611.16;5028793;28;20508;-76
2023/08/13 07:09:03;;;;;;;12.45;3.40;;;;;;;17.84;96.15;101612.25;5028441;28;20441;-77
2023/08/13 07:11:36;;;;;;;10.85;3.05;;;;;;;17.91;96.47;101615.19;5027633;28;20033;-77
2023/08/13 07:14:03;;;;;;;11.68;3.25;;;;;;;18.07;95.46;101612.78;5011934;28;20085;-76
2023/08/13 07:16:29;;;;;;;10.15;3.08;;;;;;;18.19;95.18;101604.63;5009512;28;20545;-76
2023/08/13 07:18:57;;;;;;;12.27;3.10;;;;;;;18.31;95.32;101606.13;5008758;28;20092;-77
2023/08/13 07:21:23;;;;;;;15.55;3.40;;;;;;;18.48;94.81;101610.69;5007593;28;20061;-76
2023/08/13 07:23:48;;;;;;;12.25;3.03;;;;;;;18.69;93.90;101613.16;5009725;28;20061;-76
2023/08/13 07:26:14;;;;;;;9.82;2.95;;;;;;;18.81;92.96;101611.13;5009727;28;20558;-77
2023/08/13 07:28:40;;;;;;;10.60;3.22;;;;;;;18.91;92.53;101607.44;5027821;28;20025;-76
2023/08/13 07:31:09;;;;;;;13.88;3.63;;;;;;;19.00;90.90;101611.88;5026390;28;20115;-76
2023/08/13 07:33:35;;;;;;;9.35;3.20;;;;;;;19.28;90.82;101610.03;5029097;28;20128;-77
2023/08/13 07:36:02;;;;;;;10.10;2.85;;;;;;;19.38;91.01;101605.44;5027906;28;20052;-77
2023/08/13 07:38:30;;;;;;;9.45;2.67;;;;;;;19.53;89.17;101602.25;5028410;28;20029;-77
2023/08/13 07:40:57;;;;;;;11.30;2.80;;;;;;;19.64;88.63;101610.06;5030844;28;20181;-76
2023/08/13 07:43:23;;;;;;;9.80;2.80;;;;;;;19.73;87.93;101605.63;5031147;28;20032;-76
2023/08/13 07:45:50;;;;;;;9.88;3.10;;;;;;;19.79;88.46;101608.50;5024339;28;20482;-77
2023/08/13 07:48:16;;;;;;;11.38;3.03;;;;;;;19.87;86.54;101607.72;5012046;28;20095;-77
2023/08/13 07:50:47;;;;;;;10.02;2.67;;;;;;;19.93;85.73;101602.59;5011397;28;20022;-77
2023/08/13 07:53:13;;;;;;;9.10;2.35;;;;;;;20.05;85.24;101602.38;5010689;28;20040;-77
2023/08/13 07:55:39;;;;;;;5.97;2.65;;;;;;;20.20;85.24;101601.63;5049355;28;20028;-77
2023/08/13 07:58:05;;;;;;;9.30;2.60;;;;;;;20.42;83.08;101594.09;5053710;28;20684;-76
2023/08/13 08:00:30;;;;;;;10.45;2.65;;;;;;;20.42;81.95;101594.94;5059582;28;20074;-77
2023/08/13 08:02:58;;;;;;;11.82;3.00;;;;;;;20.53;81.41;101593.81;5028300;28;20024;-76
2023/08/13 08:05:24;;;;;;;9.20;2.60;;;;;;;20.61;80.90;101594.69;5031198;28;20097;-77
2023/08/13 08:07:49;;;;;;;10.50;2.67;;;;;;;20.62;80.50;101599.03;5030112;28;20560;-76
2023/08/13 08:10:15;;;;;;;10.18;2.70;;;;;;;20.69;81.30;101601.91;5031109;28;20074;-76
2023/08/13 08:12:40;;;;;;;9.52;2.40;;;;;;;20.52;78.62;101603.69;5031268;28;20021;-78
2023/08/13 08:15:06;;;;;;;8.57;2.50;;;;;;;20.43;80.21;101601.13;5031539;28;20024;-78
2023/08/13 08:17:35;;;;;;;10.75;2.45;;;;;;;20.44;79.27;101600.97;5030900;28;20040;-78
2023/08/13 08:20:04;;;;;;;10.75;2.38;;;;;;;20.48;80.30;101596.13;5026628;28;20026;-78
2023/08/13 08:22:29;;;;;;;8.23;2.47;;;;;;;20.46;79.93;101598.97;5026961;28;20030;-78
2023/08/13 08:24:57;;;;;;;9.35;2.70;;;;;;;20.49;80.47;101598.66;5034847;28;20124;-79
2023/08/13 08:27:23;;;;;;;13.73;3.00;;;;;;;20.58;81.85;101594.19;5036010;28;20521;-75
2023/08/13 08:29:50;;;;;;;9.57;2.60;;;;;;;20.55;80.00;101595.34;5056172;28;20040;-75
2023/08/13 08:32:18;;;;;;;8.05;2.35;;;;;;;20.61;78.55;101601.88;5053512;28;20388;-78
2023/08/13 08:34:46;;;;;;;9.73;2.65;;;;;;;20.74;78.85;101593.38;5051381;28;20025;-76
2023/08/13 08:37:14;;;;;;;7.78;2.58;;;;;;;20.79;79.58;101593.75;5050343;28;20021;-76
2023/08/13 08:39:42;;;;;;;10.55;2.65;;;;;;;20.81;78.31;101600.63;5025761;28;20025;-76
2023/08/13 08:42:11;;;;;;;10.35;2.85;;;;;;;20.85;78.39;101595.78;5031903;28;20018;-76
2023/08/13 08:44:41;;;;;;;10.27;2.65;;;;;;;20.92;78.84;101596.81;5037369;28;20028;-76
2023/08/13 08:47:08;;;;;;;8.70;2.33;;;;;;;20.99;77.92;101587.13;5037439;28;20052;-76
2023/08/13 08:49:34;;;;;;;10.00;2.38;;;;;;;21.11;77.76;101591.16;5040004;28;20107;-76
2023/08/13 08:52:01;;;;;;;9.98;2.40;;;;;;;21.20;74.73;101587.50;5036138;28;20029;-76
2023/08/13 08:54:26;;;;;;;8.27;2.25;;;;;;;21.30;75.83;101594.59;5042144;28;20032;-76
2023/08/13 08:56:52;;;;;;;8.00;2.58;;;;;;;21.48;75.81;101588.06;5031366;28;20393;-75
2023/08/13 08:59:18;;;;;;;7.80;2.22;;;;;;;21.48;72.63;101581.88;5034495;28;20107;-76
2023/08/13 09:01:44;;;;;;;8.45;2.63;;;;;;;21.44;72.23;101578.72;5032731;28;20095;-75
2023/08/13 09:04:09;;;;;;;8.40;2.40;;;;;;;21.49;71.24;101572.84;5034169;28;20029;-75
2023/08/13 09:06:55;;;;;;;10.68;2.80;;;;;;;21.61;74.01;101576.03;5033715;28;20025;-75
2023/08/13 09:09:20;;;;;;;6.80;2.28;;;;;;;21.76;72.68;101575.19;5034863;28;20489;-75
2023/08/13 09:11:46;;;;;;;8.50;2.20;;;;;;;21.68;70.89;101569.00;5028893;28;20029;-76
2023/08/13 09:14:11;;;;;;;10.98;2.80;;;;;;;21.83;70.54;101572.69;5030710;28;20029;-77
2023/08/13 09:16:38;;;;;;;7.40;2.33;;;;;;;22.02;69.94;101575.00;5033624;28;20179;-75
2023/08/13 09:19:03;;;;;;;8.23;2.60;;;;;;;22.26;69.79;101566.09;5033149;28;20032;-75
2023/08/13 09:21:34;;;;;;;7.95;2.58;;;;;;;22.38;69.07;101567.38;5035771;28;20021;-75
2023/08/13 09:23:59;;;;;;;7.05;2.35;;;;;;;22.40;67.03;101560.00;5033636;28;20099;-75
2023/08/13 09:26:25;;;;;;;8.15;2.40;;;;;;;22.30;68.74;101559.38;5032760;28;20065;-75
2023/08/13 09:28:51;;;;;;;11.38;2.45;;;;;;;22.27;66.21;101559.72;5028332;28;20044;-76
2023/08/13 09:31:17;;;;;;;7.60;2.53;;;;;;;22.47;65.59;101555.63;5034880;28;20018;-75
2023/08/13 09:33:45;;;;;;;6.90;2.60;;;;;;;22.60;66.39;101562.28;5033855;28;20057;-75
2023/08/13 09:36:14;;;;;;;7.63;2.25;;;;;;;22.81;64.50;101551.78;5033822;28;20005;-76
2023/08/13 09:38:39;;;;;;;6.68;2.33;;;;;;;22.95;63.74;101551.06;5031767;28;20029;-76
2023/08/13 09:41:08;;;;;;;6.32;1.95;;;;;;;23.32;65.57;101542.25;5031108;28;20480;-76
2023/08/13 09:43:35;;;;;;;10.18;2.40;;;;;;;23.34;64.81;101542.91;5029015;28;20091;-76
2023/08/13 09:46:01;;;;;;;7.43;2.33;;;;;;;23.50;63.83;101530.34;5023718;28;20041;-75
2023/08/13 09:48:27;;;;;;;8.38;2.28;;;;;;;23.57;62.26;101531.31;5029222;28;20474;-76
2023/08/13 09:50:55;;;;;;;7.18;2.22;;;;;;;23.56;62.23;101533.16;5030196;28;20056;-76
2023/08/13 09:53:24;;;;;;;7.97;2.40;;;;;;;23.53;62.71;101529.97;5031043;28;20036;-76
2023/08/13 09:55:56;;;;;;;8.05;2.88;;;;;;;23.65;62.60;101531.25;5049421;28;20112;-76
2023/08/13 09:58:22;;;;;;;10.25;2.50;;;;;;;23.69;61.59;101527.19;5050408;28;20032;-75
2023/08/13 10:00:47;;;;;;;6.93;2.80;;;;;;;23.80;61.19;101532.09;5049601;28;20150;-76
2023/08/13 10:03:19;;;;;;;7.60;2.33;;;;;;;23.85;59.83;101520.81;5033829;28;20504;-76
2023/08/13 10:05:48;;;;;;;10.30;2.58;;;;;;;23.67;61.27;101524.69;5031030;28;20025;-77
2023/08/13 10:08:14;;;;;;;8.00;2.38;;;;;;;23.60;60.92;101522.88;5029316;28;20021;-76
2023/08/13 10:10:40;;;;;;;6.78;2.38;;;;;;;23.88;60.30;101515.88;5027605;28;20025;-76
2023/08/13 10:13:06;;;;;;;8.98;2.53;;;;;;;24.26;59.70;101513.94;5028352;28;20017;-75
2023/08/13 10:15:34;;;;;;;8.85;2.55;;;;;;;24.55;57.17;101517.66;5027585;28;20530;-75
2023/08/13 10:18:01;;;;;;;10.40;2.65;;;;;;;24.60;57.75;101505.31;5028528;28;20017;-75
2023/08/13 10:20:27;;;;;;;9.02;2.53;;;;;;;24.49;58.33;101518.41;5025403;28;20078;-75
2023/08/13 10:22:53;;;;;;;6.50;2.17;;;;;;;24.40;58.57;101520.34;5020700;28;20126;-75
2023/08/13 10:25:29;;;;;;;11.93;2.53;;;;;;;24.41;59.14;101515.81;5028682;28;20093;-76
2023/08/13 10:27:55;;;;;;;8.02;2.50;;;;;;;24.21;58.11;101511.00;5032385;28;20077;-77
2023/08/13 10:30:21;;;;;;;8.82;2.60;;;;;;;24.13;58.76;101513.78;5047532;28;20025;-76
2023/08/13 10:32:57;;;;;;;8.65;2.42;;;;;;;23.95;59.66;101510.59;5046970;28;20032;-75
2023/08/13 10:35:25;;;;;;;6.80;2.35;;;;;;;23.78;59.82;101509.13;5048606;28;20108;-75
2023/08/13 10:37:56;;;;;;;9.02;2.67;;;;;;;23.63;59.73;101511.78;5048241;28;20029;-74
2023/08/13 10:40:21;;;;;;;8.40;2.65;;;;;;;23.53;59.53;101505.78;5022675;28;20026;-75
2023/08/13 10:42:49;;;;;;;8.25;2.40;;;;;;;23.66;59.50;101512.25;5009117;28;20033;-75
2023/08/13 10:45:17;;;;;;;6.95;2.13;;;;;;;23.68;59.96;101510.22;5008856;28;20568;-76
2023/08/13 10:47:50;;;;;;;8.05;2.45;;;;;;;23.74;60.08;101509.50;5009685;28;20455;-75
2023/08/13 10:50:20;;;;;;;8.15;2.53;;;;;;;23.86;59.32;101501.81;5009762;28;20445;-76
2023/08/13 10:52:50;;;;;;;6.57;2.38;;;;;;;24.10;56.79;101503.41;5009241;28;20382;-75
2023/08/13 10:55:20;;;;;;;8.98;2.80;;;;;;;24.34;56.38;101499.59;5028666;28;20026;-76
2023/08/13 10:57:50;;;;;;;7.85;2.00;;;;;;;24.61;57.32;101500.75;5029302;28;20048;-76
2023/08/13 11:00:16;;;;;;;10.88;2.58;;;;;;;24.73;57.26;101499.22;5028726;28;20551;-76
2023/08/13 11:02:44;;;;;;;8.82;2.40;;;;;;;24.72;56.05;101500.25;5028064;28;20032;-76
2023/08/13 11:05:09;;;;;;;9.07;2.47;;;;;;;24.91;56.84;101490.72;5029443;28;20025;-76
2023/08/13 11:07:36;;;;;;;9.95;2.42;;;;;;;24.93;54.63;101500.28;5029151;28;20034;-75
2023/08/13 11:10:03;;;;;;;7.70;2.40;;;;;;;24.83;55.04;101494.38;5028202;28;20461;-75
2023/08/13 11:12:30;;;;;;;8.23;2.50;;;;;;;24.89;55.55;101493.63;5022545;28;20038;-75
2023/08/13 11:14:59;;;;;;;7.95;2.50;;;;;;;24.97;55.33;101490.78;5032426;28;20021;-74